createdAt,value
2022-10-23T00:00:43.565Z,97.51
2022-10-23T00:03:09.970Z,97.31
2022-10-23T00:05:40.470Z,97.09
2022-10-23T00:08:07.275Z,97.76
2022-10-23T00:10:33.903Z,98.02
2022-10-23T00:13:00.315Z,97.48
2022-10-23T00:15:27.437Z,97.32
2022-10-23T00:17:54.157Z,96.72
2022-10-23T00:20:21.748Z,97.36
2022-10-23T00:22:48.117Z,97.11
2022-10-23T00:25:16.304Z,97.31
2022-10-23T00:27:43.298Z,97.57
2022-10-23T00:30:10.772Z,97.48
2022-10-23T00:32:37.444Z,97.63
2022-10-23T00:35:04.679Z,97.16
2022-10-23T00:37:31.041Z,97.85
2022-10-23T00:39:57.417Z,97.84
2022-10-23T00:42:24.106Z,97.12
2022-10-23T00:44:50.402Z,97.61
2022-10-23T00:47:17.314Z,98.11
2022-10-23T00:49:44.027Z,97.82
2022-10-23T00:52:13.140Z,98.33
2022-10-23T00:54:43.605Z,97.83
2022-10-23T00:57:14.724Z,97.80
2022-10-23T00:59:42.273Z,98.03
2022-10-23T01:02:09.140Z,97.74
2022-10-23T01:04:36.785Z,98.34
2022-10-23T01:07:14.352Z,97.46
2022-10-23T01:09:55.732Z,97.43
2022-10-23T01:12:24.799Z,98.70
2022-10-23T01:15:16.180Z,98.53
2022-10-23T01:17:49.727Z,98.01
2022-10-23T01:20:39.360Z,98.36
2022-10-23T01:23:29.054Z,98.01
2022-10-23T01:26:20.426Z,97.90
2022-10-23T01:28:59.524Z,97.96
2022-10-23T01:31:42.387Z,98.68
2022-10-23T01:34:22.044Z,98.75
2022-10-23T01:36:51.279Z,98.96
2022-10-23T01:39:27.645Z,98.13
2022-10-23T01:42:03.766Z,98.24
2022-10-23T01:44:34.915Z,98.83
2022-10-23T01:47:03.846Z,98.51
2022-10-23T01:49:31.747Z,99.00
2022-10-23T01:52:03.107Z,98.69
2022-10-23T01:54:33.746Z,99.23
2022-10-23T01:57:00.583Z,98.33
2022-10-23T01:59:35.218Z,98.31
2022-10-23T02:02:04.032Z,98.96
2022-10-23T02:04:36.255Z,98.22
2022-10-23T02:07:02.732Z,98.33
2022-10-23T02:09:29.153Z,98.52
2022-10-23T02:12:03.383Z,98.74
2022-10-23T02:14:36.369Z,98.90
2022-10-23T02:17:16.661Z,98.24
2022-10-23T02:19:56.214Z,97.94
2022-10-23T02:22:28.924Z,98.58
2022-10-23T02:25:08.969Z,98.79
2022-10-23T02:27:39.983Z,98.10
2022-10-23T02:30:11.324Z,99.12
2022-10-23T02:32:42.402Z,98.36
2022-10-23T02:35:09.318Z,98.97
2022-10-23T02:37:35.749Z,98.80
2022-10-23T02:40:03.896Z,99.03
2022-10-23T02:42:47.027Z,98.47
2022-10-23T02:45:36.253Z,98.93
2022-10-23T02:48:29.120Z,98.35
2022-10-23T02:51:18.691Z,98.78
2022-10-23T02:53:51.873Z,98.77
2022-10-23T02:56:38.498Z,98.23
2022-10-23T02:59:18.221Z,98.66
2022-10-23T03:01:51.710Z,99.23
2022-10-23T03:04:21.162Z,99.05
2022-10-23T03:06:49.218Z,98.42
2022-10-23T03:09:15.651Z,98.68
2022-10-23T03:11:42.026Z,98.91
2022-10-23T03:14:09.545Z,99.19
2022-10-23T03:16:36.401Z,99.40
2022-10-23T03:19:02.777Z,98.54
2022-10-23T03:21:29.166Z,98.33
2022-10-23T03:23:55.594Z,99.16
2022-10-23T03:26:21.974Z,99.23
2022-10-23T03:28:48.322Z,98.95
2022-10-23T03:31:14.696Z,98.79
2022-10-23T03:33:41.071Z,98.57
2022-10-23T03:36:08.019Z,98.37
2022-10-23T03:38:34.596Z,99.12
2022-10-23T03:41:01.004Z,98.36
2022-10-23T03:43:27.430Z,98.54
2022-10-23T03:45:55.382Z,98.41
2022-10-23T03:48:24.026Z,99.05
2022-10-23T03:50:50.595Z,98.82
2022-10-23T03:53:17.320Z,99.38
2022-10-23T03:55:44.650Z,98.71
2022-10-23T03:58:11.258Z,98.39
2022-10-23T04:00:37.635Z,99.05
2022-10-23T04:03:04.049Z,99.38
2022-10-23T04:05:30.353Z,99.29
2022-10-23T04:07:57.126Z,99.15
2022-10-23T04:10:23.467Z,98.85
2022-10-23T04:12:49.840Z,98.25
2022-10-23T04:15:16.223Z,98.48
2022-10-23T04:17:42.555Z,99.03
2022-10-23T04:20:09.526Z,98.54
2022-10-23T04:22:35.840Z,98.27
2022-10-23T04:25:02.205Z,98.64
2022-10-23T04:27:28.595Z,98.44
2022-10-23T04:29:56.898Z,98.94
2022-10-23T04:32:25.611Z,98.87
2022-10-23T04:34:51.998Z,98.52
2022-10-23T04:37:18.359Z,98.93
2022-10-23T04:39:44.704Z,98.92
2022-10-23T04:42:11.063Z,99.03
2022-10-23T04:44:37.447Z,99.00
2022-10-23T04:47:03.821Z,98.34
2022-10-23T04:49:30.223Z,98.81
2022-10-23T04:51:56.624Z,98.32
2022-10-23T04:54:23.003Z,98.10
2022-10-23T04:56:49.388Z,97.35
2022-10-23T04:59:15.872Z,97.00
2022-10-23T05:01:42.513Z,97.41
2022-10-23T05:04:08.962Z,97.21
2022-10-23T05:06:35.290Z,96.77
2022-10-23T05:09:01.631Z,97.09
2022-10-23T05:11:27.968Z,97.61
2022-10-23T05:13:54.407Z,97.47
2022-10-23T05:16:32.985Z,96.98
2022-10-23T05:19:00.186Z,97.51
2022-10-23T05:21:31.690Z,97.50
2022-10-23T05:26:31.841Z,97.87
2022-10-23T05:28:58.545Z,98.13
2022-10-23T05:31:25.602Z,97.33
2022-10-23T05:33:54.925Z,97.57
2022-10-23T05:36:23.799Z,97.52
2022-10-23T05:38:50.727Z,97.40
2022-10-23T05:41:17.623Z,97.58
2022-10-23T05:43:44.019Z,97.49
2022-10-23T05:46:10.350Z,97.77
2022-10-23T05:48:36.691Z,97.91
2022-10-23T05:51:08.215Z,98.07
2022-10-23T05:53:36.274Z,97.54
2022-10-23T05:56:09.150Z,97.28
2022-10-23T05:58:35.631Z,98.21
2022-10-23T06:01:07.056Z,98.10
2022-10-23T06:03:33.537Z,98.07
2022-10-23T06:06:00.905Z,98.25
2022-10-23T06:08:27.268Z,97.99
2022-10-23T06:10:54.446Z,98.36
2022-10-23T06:13:20.771Z,98.15
2022-10-23T06:15:47.295Z,98.54
2022-10-23T06:18:14.040Z,98.52
2022-10-23T06:20:40.953Z,98.00
2022-10-23T06:23:08.351Z,98.77
2022-10-23T06:25:34.686Z,98.43
2022-10-23T06:28:01.023Z,98.91
2022-10-23T06:30:27.488Z,99.35
2022-10-23T06:32:53.902Z,98.39
2022-10-23T06:35:20.268Z,98.47
2022-10-23T06:37:46.618Z,98.88
2022-10-23T06:40:13.139Z,98.94
2022-10-23T06:42:39.474Z,98.11
2022-10-23T06:45:07.222Z,98.28
2022-10-23T06:47:33.763Z,97.78
2022-10-23T06:50:00.314Z,98.01
2022-10-23T06:52:45.799Z,97.34
2022-10-23T06:55:13.003Z,98.24
2022-10-23T06:57:39.303Z,98.34
2022-10-23T07:00:06.392Z,97.71
2022-10-23T07:02:32.771Z,97.64
2022-10-23T07:04:59.213Z,97.65
2022-10-23T07:07:25.599Z,97.33
2022-10-23T07:09:51.981Z,97.46
2022-10-23T07:12:18.362Z,97.91
2022-10-23T07:14:44.723Z,97.81
2022-10-23T07:17:11.100Z,97.28
2022-10-23T07:19:37.495Z,97.53
2022-10-23T07:22:04.928Z,98.05
2022-10-23T07:24:31.878Z,97.16
2022-10-23T07:26:58.333Z,97.39
2022-10-23T07:29:24.727Z,96.46
2022-10-23T07:31:51.063Z,96.97
2022-10-23T07:34:17.511Z,96.85
2022-10-23T07:36:43.876Z,95.73
2022-10-23T07:39:10.275Z,96.60
2022-10-23T07:41:36.626Z,96.20
2022-10-23T07:44:03.312Z,96.06
2022-10-23T07:46:29.663Z,95.77
2022-10-23T07:48:56.079Z,96.32
2022-10-23T07:51:22.481Z,95.83
2022-10-23T07:53:48.918Z,96.41
2022-10-23T07:56:20.215Z,95.49
2022-10-23T07:58:46.591Z,96.66
2022-10-23T08:01:19.550Z,96.52
2022-10-23T08:03:46.568Z,96.22
2022-10-23T08:06:12.985Z,96.30
2022-10-23T08:08:39.439Z,96.46
2022-10-23T08:11:06.479Z,95.71
2022-10-23T08:13:33.417Z,96.79
2022-10-23T08:15:59.865Z,96.83
2022-10-23T08:18:26.199Z,96.71
2022-10-23T08:20:52.868Z,96.48
2022-10-23T08:23:20.148Z,95.87
2022-10-23T08:25:47.075Z,95.75
2022-10-23T08:28:13.511Z,96.99
2022-10-23T08:30:40.034Z,96.44
2022-10-23T08:33:07.187Z,96.06
2022-10-23T08:35:38.039Z,95.92
2022-10-23T08:38:05.598Z,96.16
2022-10-23T08:40:35.507Z,96.37
2022-10-23T08:43:11.579Z,96.84
2022-10-23T08:45:44.252Z,95.65
2022-10-23T08:48:20.530Z,95.17
2022-10-23T08:50:53.423Z,95.19
2022-10-23T08:53:29.481Z,95.35
2022-10-23T08:56:12.041Z,94.52
2022-10-23T09:01:33.105Z,95.20
2022-10-23T09:04:00.459Z,96.23
2022-10-23T09:06:33.901Z,96.47
2022-10-23T09:09:09.985Z,95.88
2022-10-23T09:11:47.267Z,96.08
2022-10-23T09:14:40.459Z,95.71
2022-10-23T09:17:24.502Z,95.55
2022-10-23T09:20:00.582Z,95.32
2022-10-23T09:22:28.727Z,95.26
2022-10-23T09:24:55.110Z,96.07
2022-10-23T09:27:21.585Z,95.81
2022-10-23T09:29:54.116Z,95.66
2022-10-23T09:32:32.729Z,96.02
2022-10-23T09:34:59.077Z,95.87
2022-10-23T09:37:31.078Z,96.31
2022-10-23T09:40:15.465Z,96.73
2022-10-23T09:42:52.308Z,97.24
2022-10-23T09:45:44.767Z,95.60
2022-10-23T09:48:17.677Z,95.05
2022-10-23T09:50:51.721Z,95.81
2022-10-23T09:53:29.498Z,95.52
2022-10-23T09:55:59.257Z,95.70
2022-10-23T09:58:38.531Z,95.12
2022-10-23T10:01:05.413Z,95.70
2022-10-23T10:03:32.434Z,93.83
2022-10-23T10:06:02.299Z,93.90
2022-10-23T10:08:51.693Z,94.01
2022-10-23T10:11:27.677Z,93.13
2022-10-23T10:14:15.196Z,94.10
2022-10-23T10:17:14.449Z,92.02
2022-10-23T10:20:03.747Z,92.54
2022-10-23T10:22:57.743Z,92.35
2022-10-23T10:25:41.992Z,91.23
2022-10-23T10:28:17.426Z,92.47
2022-10-23T10:31:21.328Z,91.97
2022-10-23T10:34:04.983Z,91.73
2022-10-23T10:36:44.138Z,91.57
2022-10-23T10:39:31.904Z,91.78
2022-10-23T10:42:12.768Z,92.14
2022-10-23T10:44:57.491Z,90.35
2022-10-23T10:47:45.319Z,90.29
2022-10-23T10:50:14.859Z,89.26
2022-10-23T10:53:02.410Z,90.22
2022-10-23T10:55:35.544Z,89.64
2022-10-23T10:58:20.302Z,88.51
2022-10-23T11:00:53.134Z,89.34
2022-10-23T11:03:37.601Z,88.59
2022-10-23T11:06:16.385Z,88.54
2022-10-23T11:08:57.563Z,89.34
2022-10-23T11:11:35.230Z,89.96
2022-10-23T11:14:02.084Z,89.72
2022-10-23T11:16:36.536Z,89.99
2022-10-23T11:19:21.192Z,89.89
2022-10-23T11:22:18.395Z,89.75
2022-10-23T11:25:21.492Z,89.43
2022-10-23T11:28:11.453Z,88.63
2022-10-23T11:30:43.835Z,88.40
2022-10-23T11:33:25.929Z,85.92
2022-10-23T11:36:19.747Z,86.46
2022-10-23T11:38:50.716Z,86.50
2022-10-23T11:41:33.811Z,86.54
2022-10-23T11:44:03.933Z,86.29
2022-10-23T11:46:38.658Z,86.74
2022-10-23T11:49:19.224Z,84.30
2022-10-23T11:51:45.834Z,82.80
2022-10-23T11:54:13.289Z,84.22
2022-10-23T11:57:10.726Z,79.23
2022-10-23T11:59:49.545Z,77.64
2022-10-23T12:02:22.805Z,77.76
2022-10-23T12:04:52.377Z,77.31
2022-10-23T12:07:28.907Z,78.77
2022-10-23T12:10:03.547Z,81.02
2022-10-23T12:12:40.649Z,81.46
2022-10-23T12:15:18.994Z,79.23
2022-10-23T12:17:47.235Z,74.56
2022-10-23T12:20:13.660Z,71.70
2022-10-23T12:22:49.029Z,70.21
2022-10-23T12:25:39.574Z,69.44
2022-10-23T12:28:14.063Z,71.89
2022-10-23T12:31:14.044Z,71.94
2022-10-23T12:34:01.131Z,68.69
2022-10-23T12:36:37.300Z,70.83
2022-10-23T12:39:03.692Z,71.71
2022-10-23T12:41:33.673Z,70.65
2022-10-23T12:44:03.251Z,70.80
2022-10-23T12:46:31.738Z,71.42
2022-10-23T12:48:59.888Z,72.90
2022-10-23T12:51:36.740Z,74.05
2022-10-23T12:54:04.054Z,73.68
2022-10-23T12:56:38.890Z,73.09
2022-10-23T12:59:15.014Z,69.70
2022-10-23T13:01:43.435Z,63.22
2022-10-23T13:04:31.889Z,57.58
2022-10-23T13:07:03.058Z,53.96
2022-10-23T13:09:42.165Z,53.25
2022-10-23T13:12:18.528Z,53.53
2022-10-23T13:15:03.301Z,60.57
2022-10-23T13:17:37.730Z,64.41
2022-10-23T13:20:10.309Z,66.94
2022-10-23T13:22:36.937Z,69.14
2022-10-23T13:25:04.331Z,70.78
2022-10-23T13:27:30.624Z,71.73
2022-10-23T13:29:57.026Z,72.61
2022-10-23T13:32:25.409Z,73.70
2022-10-23T13:35:03.931Z,73.82
2022-10-23T13:37:30.769Z,73.06
2022-10-23T13:40:01.252Z,75.92
2022-10-23T13:42:27.773Z,77.22
2022-10-23T13:44:54.527Z,78.16
2022-10-23T13:47:21.391Z,79.22
2022-10-23T13:49:47.849Z,79.48
2022-10-23T13:52:19.271Z,79.59
2022-10-23T13:54:45.706Z,79.40
2022-10-23T13:57:14.656Z,79.19
2022-10-23T13:59:41.679Z,79.56
2022-10-23T14:02:19.692Z,80.30
2022-10-23T14:04:47.165Z,80.46
2022-10-23T14:07:13.544Z,80.09
2022-10-23T14:09:40.128Z,80.17
2022-10-23T14:12:06.614Z,79.93
2022-10-23T14:14:33.852Z,79.24
2022-10-23T14:17:00.325Z,78.68
2022-10-23T14:19:26.762Z,79.21
2022-10-23T14:21:53.191Z,79.58
2022-10-23T14:24:19.537Z,80.17
2022-10-23T14:26:45.989Z,80.64
2022-10-23T14:29:21.367Z,80.22
2022-10-23T14:31:49.541Z,80.38
2022-10-23T14:34:16.562Z,80.55
2022-10-23T14:36:49.959Z,80.11
2022-10-23T14:39:17.863Z,78.89
2022-10-23T14:41:44.455Z,79.60
2022-10-23T14:44:10.914Z,78.77
2022-10-23T14:46:38.231Z,79.91
2022-10-23T14:49:04.700Z,79.63
2022-10-23T14:51:31.091Z,80.54
2022-10-23T14:54:07.473Z,79.83
2022-10-23T14:56:37.553Z,81.01
2022-10-23T14:59:04.728Z,80.67
2022-10-23T15:01:33.204Z,80.59
2022-10-23T15:03:59.734Z,81.01
2022-10-23T15:06:26.548Z,78.71
2022-10-23T15:08:56.842Z,80.44
2022-10-23T15:11:24.548Z,80.37
2022-10-23T15:13:51.299Z,80.26
2022-10-23T15:16:18.180Z,80.48
2022-10-23T15:18:44.538Z,81.01
2022-10-23T15:21:11.183Z,80.99
2022-10-23T15:23:40.020Z,80.54
2022-10-23T15:26:09.219Z,81.17
2022-10-23T15:28:35.625Z,80.42
2022-10-23T15:31:02.095Z,80.98
2022-10-23T15:33:28.705Z,80.81
2022-10-23T15:35:55.360Z,80.09
2022-10-23T15:38:22.577Z,80.58
2022-10-23T15:40:49.391Z,80.18
2022-10-23T15:43:16.249Z,80.40
2022-10-23T15:45:43.195Z,81.21
2022-10-23T15:48:10.807Z,82.23
2022-10-23T15:50:37.535Z,82.25
2022-10-23T15:53:04.077Z,82.75
2022-10-23T15:55:30.581Z,82.18
2022-10-23T15:58:01.798Z,82.38
2022-10-23T16:00:28.319Z,82.45
2022-10-23T16:02:54.770Z,81.53
2022-10-23T16:05:21.303Z,82.30
2022-10-23T16:07:47.735Z,81.63
2022-10-23T16:10:14.209Z,81.53
2022-10-23T16:12:40.747Z,81.93
2022-10-23T16:15:08.199Z,81.97
2022-10-23T16:17:34.693Z,82.46
2022-10-23T16:20:01.127Z,80.93
2022-10-23T16:22:27.774Z,81.62
2022-10-23T16:24:54.336Z,81.80
2022-10-23T16:27:20.779Z,81.97
2022-10-23T16:29:47.297Z,81.22
2022-10-23T16:32:13.636Z,82.01
2022-10-23T16:34:40.155Z,80.75
2022-10-23T16:37:06.758Z,81.58
2022-10-23T16:39:33.122Z,81.53
2022-10-23T16:41:59.442Z,82.03
2022-10-23T16:44:25.956Z,81.73
2022-10-23T16:46:52.493Z,81.89
2022-10-23T16:49:20.006Z,82.16
2022-10-23T16:51:46.501Z,82.12
2022-10-23T16:54:14.556Z,81.97
2022-10-23T16:56:41.019Z,82.77
2022-10-23T16:59:07.400Z,83.45
2022-10-23T17:01:33.930Z,83.99
2022-10-23T17:04:00.402Z,83.51
2022-10-23T17:06:29.562Z,83.93
2022-10-23T17:08:56.792Z,83.68
2022-10-23T17:11:32.159Z,83.87
2022-10-23T17:14:01.767Z,83.39
2022-10-23T17:16:34.885Z,83.56
2022-10-23T17:19:03.132Z,83.53
2022-10-23T17:21:36.088Z,83.40
2022-10-23T17:26:34.455Z,83.57
2022-10-23T17:29:02.360Z,84.13
2022-10-23T17:31:31.843Z,84.00
2022-10-23T17:34:06.342Z,84.11
2022-10-23T17:36:36.993Z,83.96
2022-10-23T17:39:07.463Z,83.72
2022-10-23T17:41:34.768Z,83.01
2022-10-23T17:44:01.285Z,83.52
2022-10-23T17:46:29.177Z,82.78
2022-10-23T17:49:00.248Z,81.85
2022-10-23T17:51:28.829Z,81.43
2022-10-23T17:53:57.352Z,81.19
2022-10-23T17:56:26.614Z,81.71
2022-10-23T17:58:55.720Z,81.16
2022-10-23T18:01:25.905Z,82.15
2022-10-23T18:03:55.251Z,82.55
2022-10-23T18:06:28.786Z,82.61
2022-10-23T18:08:58.438Z,82.24
2022-10-23T18:11:28.296Z,82.78
2022-10-23T18:13:57.400Z,82.43
2022-10-23T18:16:23.917Z,82.74
2022-10-23T18:18:53.506Z,82.49
2022-10-23T18:21:22.650Z,82.83
2022-10-23T18:23:49.760Z,82.45
2022-10-23T18:26:22.108Z,81.52
2022-10-23T18:28:50.827Z,80.42
2022-10-23T18:31:18.227Z,80.20
2022-10-23T18:33:45.888Z,81.48
2022-10-23T18:36:26.621Z,81.29
2022-10-23T18:38:53.147Z,80.35
2022-10-23T18:41:20.248Z,81.42
2022-10-23T18:43:46.676Z,80.53
2022-10-23T18:46:14.257Z,79.47
2022-10-23T18:48:42.296Z,80.36
2022-10-23T18:51:20.726Z,79.07
2022-10-23T18:53:47.707Z,79.29
2022-10-23T18:56:16.312Z,78.90
2022-10-23T18:58:42.718Z,78.21
2022-10-23T19:01:09.254Z,78.82
2022-10-23T19:03:36.728Z,78.46
2022-10-23T19:06:06.842Z,77.84
2022-10-23T19:08:37.261Z,78.74
2022-10-23T19:11:06.485Z,79.11
2022-10-23T19:13:38.913Z,78.30
2022-10-23T19:16:15.675Z,79.04
2022-10-23T19:18:50.098Z,79.79
2022-10-23T19:21:20.566Z,79.53
2022-10-23T19:23:48.922Z,80.43
2022-10-23T19:26:16.015Z,79.31
2022-10-23T19:28:45.769Z,78.99
2022-10-23T19:31:12.844Z,79.57
2022-10-23T19:33:39.529Z,78.48
2022-10-23T19:36:11.080Z,79.78
2022-10-23T19:38:40.711Z,79.98
2022-10-23T19:41:07.491Z,80.31
2022-10-23T19:43:34.137Z,79.82
2022-10-23T19:46:04.963Z,79.21
2022-10-23T19:48:34.394Z,79.90
2022-10-23T19:51:01.004Z,79.20
2022-10-23T19:53:27.348Z,79.43
2022-10-23T19:56:05.382Z,79.40
2022-10-23T19:58:32.047Z,80.21
2022-10-23T20:00:58.550Z,78.92
2022-10-23T20:03:24.952Z,79.69
2022-10-23T20:05:51.415Z,79.40
2022-10-23T20:08:18.027Z,79.36
2022-10-23T20:10:46.461Z,79.13
2022-10-23T20:13:19.995Z,79.47
2022-10-23T20:15:47.865Z,78.76
2022-10-23T20:18:15.354Z,78.54
2022-10-23T20:20:42.395Z,78.17
2022-10-23T20:23:09.239Z,78.39
2022-10-23T20:25:35.770Z,78.13
2022-10-23T20:28:02.349Z,79.25
2022-10-23T20:30:28.867Z,78.68
2022-10-23T20:32:56.033Z,79.06
2022-10-23T20:35:22.362Z,78.76
2022-10-23T20:37:48.698Z,79.11
2022-10-23T20:40:15.195Z,79.54
2022-10-23T20:42:41.640Z,79.08
2022-10-23T20:45:08.520Z,79.23
2022-10-23T20:47:34.859Z,79.69
2022-10-23T20:50:01.240Z,79.52
2022-10-23T20:52:29.971Z,79.13
2022-10-23T20:54:56.470Z,79.62
2022-10-23T20:57:22.833Z,80.06
2022-10-23T20:59:49.223Z,79.52
2022-10-23T21:02:15.681Z,79.68
2022-10-23T21:04:42.190Z,78.99
2022-10-23T21:07:10.329Z,79.56
2022-10-23T21:09:38.432Z,79.19
2022-10-23T21:12:06.349Z,78.93
2022-10-23T21:14:32.834Z,79.62
2022-10-23T21:16:59.307Z,79.79
2022-10-23T21:19:25.742Z,80.16
2022-10-23T21:21:52.489Z,80.39
2022-10-23T21:24:18.898Z,80.34
2022-10-23T21:26:45.776Z,80.87
2022-10-23T21:29:20.838Z,80.39
2022-10-23T21:31:58.613Z,80.36
2022-10-23T21:34:26.186Z,80.74
2022-10-23T21:37:13.511Z,80.59
2022-10-23T21:39:39.219Z,80.84
2022-10-23T21:42:05.890Z,80.32
2022-10-23T21:44:32.370Z,81.05
2022-10-23T21:46:58.746Z,81.35
2022-10-23T21:49:25.083Z,81.41
2022-10-23T21:51:51.582Z,81.76
2022-10-23T21:54:17.920Z,81.39
2022-10-23T21:56:47.711Z,81.29
2022-10-23T21:59:16.733Z,82.10
2022-10-23T22:01:46.197Z,81.69
2022-10-23T22:04:14.761Z,81.82
2022-10-23T22:06:42.052Z,82.34
2022-10-23T22:09:11.321Z,81.86
2022-10-23T22:11:37.950Z,82.07
2022-10-23T22:14:04.340Z,82.17
2022-10-23T22:16:30.819Z,82.03
2022-10-23T22:18:57.295Z,81.44
2022-10-23T22:21:26.519Z,82.04
2022-10-23T22:23:57.492Z,82.12
2022-10-23T22:26:30.070Z,82.64
2022-10-23T22:28:59.520Z,82.12
2022-10-23T22:31:30.643Z,81.93
2022-10-23T22:33:57.982Z,82.75
2022-10-23T22:36:25.521Z,82.30
2022-10-23T22:38:52.464Z,82.86
2022-10-23T22:41:19.004Z,83.21
2022-10-23T22:43:45.383Z,83.37
2022-10-23T22:46:18.927Z,82.91
2022-10-23T22:48:45.829Z,83.21
2022-10-23T22:51:15.314Z,83.80
2022-10-23T22:53:42.829Z,84.52
2022-10-23T22:56:15.304Z,84.75
2022-10-23T22:58:41.675Z,85.27
2022-10-23T23:01:17.058Z,84.75
2022-10-23T23:03:44.077Z,85.21
2022-10-23T23:06:11.369Z,85.65
2022-10-23T23:08:39.466Z,85.52
2022-10-23T23:11:07.846Z,85.88
2022-10-23T23:13:34.643Z,86.13
2022-10-23T23:16:02.027Z,86.28
2022-10-23T23:18:29.259Z,86.51
2022-10-23T23:21:00.679Z,86.90
2022-10-23T23:23:27.044Z,87.36
2022-10-23T23:25:53.388Z,87.00
2022-10-23T23:28:20.953Z,87.20
2022-10-23T23:30:48.374Z,86.81
2022-10-23T23:33:16.581Z,87.19
2022-10-23T23:35:44.978Z,87.45
2022-10-23T23:38:12.685Z,87.76
2022-10-23T23:40:40.266Z,88.40
2022-10-23T23:43:06.942Z,88.84
2022-10-23T23:45:33.427Z,89.20
2022-10-23T23:47:59.767Z,89.26
2022-10-23T23:50:27.850Z,89.54
2022-10-23T23:52:54.322Z,89.75
2022-10-23T23:55:20.692Z,89.40
2022-10-23T23:57:47.261Z,90.03
